Terminal Aerodrome Forecast
Issued by NWS Grand Forks, ND

Home | Current Version | Previous Version | Graphics & Text | Print | Product List | Glossary On
Versions: 1 2 3 4 5 6 7 8 9 10 11 12 13 14 15 16 17 18 19 20 21
000
FTUS43 KFGF 231603 AAE
TAFFAR
TAF AMD
KFAR 231603Z 2316/2412 18004KT 1SM BR OVC003
     FM231730 17009KT P6SM SCT003
     FM232000 18012KT P6SM SCT150
     FM240800 20011KT P6SM BKN070=

USA.gov is the U.S. government's official web portal to all federal, state and local government web resources and services.